sensor_id;sensor_type;location;lat;lon;timestamp;pressure;altitude;pressure_sealevel;temperature;humidity
58018;BME280;43810;50.860;19.226;2023-03-14T00:02:07;97106.22;;;7.69;66.15
58018;BME280;43810;50.860;19.226;2023-03-14T00:04:34;97110.03;;;7.71;66.09
58018;BME280;43810;50.860;19.226;2023-03-14T00:07:00;97098.56;;;7.83;65.75
58018;BME280;43810;50.860;19.226;2023-03-14T00:09:26;97090.38;;;7.88;65.66
58018;BME280;43810;50.860;19.226;2023-03-14T00:11:56;97092.53;;;7.82;65.37
58018;BME280;43810;50.860;19.226;2023-03-14T00:14:22;97074.78;;;7.83;65.46
58018;BME280;43810;50.860;19.226;2023-03-14T00:16:48;97065.28;;;7.98;65.12
58018;BME280;43810;50.860;19.226;2023-03-14T00:19:14;97064.28;;;7.86;65.62
58018;BME280;43810;50.860;19.226;2023-03-14T00:21:40;97050.03;;;7.91;65.25
58018;BME280;43810;50.860;19.226;2023-03-14T00:24:07;97046.00;;;7.97;65.01
58018;BME280;43810;50.860;19.226;2023-03-14T00:26:34;97046.88;;;8.05;64.83
58018;BME280;43810;50.860;19.226;2023-03-14T00:29:00;97035.69;;;8.11;64.19
58018;BME280;43810;50.860;19.226;2023-03-14T00:31:26;97025.59;;;8.17;64.00
58018;BME280;43810;50.860;19.226;2023-03-14T00:33:52;97010.47;;;8.17;63.82
58018;BME280;43810;50.860;19.226;2023-03-14T00:36:19;97012.56;;;8.08;64.50
58018;BME280;43810;50.860;19.226;2023-03-14T00:38:50;97006.53;;;8.08;64.12
58018;BME280;43810;50.860;19.226;2023-03-14T00:41:23;96993.59;;;8.03;64.56
58018;BME280;43810;50.860;19.226;2023-03-14T00:43:49;96998.59;;;8.08;64.48
58018;BME280;43810;50.860;19.226;2023-03-14T00:46:15;96992.59;;;8.11;64.03
58018;BME280;43810;50.860;19.226;2023-03-14T00:48:41;96995.53;;;8.06;64.49
58018;BME280;43810;50.860;19.226;2023-03-14T00:51:08;96978.38;;;8.19;63.87
58018;BME280;43810;50.860;19.226;2023-03-14T00:53:35;96979.66;;;8.25;64.18
58018;BME280;43810;50.860;19.226;2023-03-14T00:56:04;96981.75;;;8.39;63.82
58018;BME280;43810;50.860;19.226;2023-03-14T00:58:29;96976.25;;;8.47;63.58
58018;BME280;43810;50.860;19.226;2023-03-14T01:00:58;96970.81;;;8.63;63.03
58018;BME280;43810;50.860;19.226;2023-03-14T01:03:33;96961.13;;;8.71;63.16
58018;BME280;43810;50.860;19.226;2023-03-14T01:06:10;96962.00;;;8.78;62.62
58018;BME280;43810;50.860;19.226;2023-03-14T01:08:43;96950.78;;;8.88;62.29
58018;BME280;43810;50.860;19.226;2023-03-14T01:11:18;96944.31;;;8.86;62.06
58018;BME280;43810;50.860;19.226;2023-03-14T01:13:49;96940.69;;;8.94;61.98
58018;BME280;43810;50.860;19.226;2023-03-14T01:16:20;96930.16;;;9.01;61.81
58018;BME280;43810;50.860;19.226;2023-03-14T01:18:46;96913.38;;;8.90;61.90
58018;BME280;43810;50.860;19.226;2023-03-14T01:21:15;96898.53;;;8.85;61.84
58018;BME280;43810;50.860;19.226;2023-03-14T01:23:41;96898.94;;;8.87;62.14
58018;BME280;43810;50.860;19.226;2023-03-14T01:26:09;96876.69;;;8.92;62.14
58018;BME280;43810;50.860;19.226;2023-03-14T01:28:35;96874.06;;;8.92;62.31
58018;BME280;43810;50.860;19.226;2023-03-14T01:31:06;96883.88;;;8.91;62.06
58018;BME280;43810;50.860;19.226;2023-03-14T01:33:33;96893.44;;;8.99;61.59
58018;BME280;43810;50.860;19.226;2023-03-14T01:36:00;96897.94;;;8.95;61.85
58018;BME280;43810;50.860;19.226;2023-03-14T01:38:31;96892.69;;;8.99;62.09
58018;BME280;43810;50.860;19.226;2023-03-14T01:40:57;96887.84;;;9.05;62.08
58018;BME280;43810;50.860;19.226;2023-03-14T01:43:24;96879.69;;;9.17;61.54
58018;BME280;43810;50.860;19.226;2023-03-14T01:46:12;96885.75;;;9.17;61.68
58018;BME280;43810;50.860;19.226;2023-03-14T01:48:46;96901.81;;;9.31;61.14
58018;BME280;43810;50.860;19.226;2023-03-14T01:53:54;96902.44;;;9.21;61.38
58018;BME280;43810;50.860;19.226;2023-03-14T01:56:24;96915.25;;;9.16;61.59
58018;BME280;43810;50.860;19.226;2023-03-14T01:58:51;96923.47;;;9.07;61.91
58018;BME280;43810;50.860;19.226;2023-03-14T02:01:20;96934.28;;;8.98;62.31
58018;BME280;43810;50.860;19.226;2023-03-14T02:03:53;96928.44;;;8.86;62.61
58018;BME280;43810;50.860;19.226;2023-03-14T02:06:23;96909.50;;;8.84;62.45
58018;BME280;43810;50.860;19.226;2023-03-14T02:08:50;96914.75;;;8.80;62.63
58018;BME280;43810;50.860;19.226;2023-03-14T02:11:17;96903.22;;;8.69;62.86
58018;BME280;43810;50.860;19.226;2023-03-14T02:13:44;96902.34;;;8.61;62.77
58018;BME280;43810;50.860;19.226;2023-03-14T02:16:10;96912.13;;;8.57;62.83
58018;BME280;43810;50.860;19.226;2023-03-14T02:18:37;96907.31;;;8.40;64.01
58018;BME280;43810;50.860;19.226;2023-03-14T02:21:29;96900.09;;;8.37;63.88
58018;BME280;43810;50.860;19.226;2023-03-14T02:24:13;96895.16;;;8.36;63.72
58018;BME280;43810;50.860;19.226;2023-03-14T02:29:31;96892.78;;;8.31;63.96
58018;BME280;43810;50.860;19.226;2023-03-14T02:31:59;96905.97;;;8.27;63.94
58018;BME280;43810;50.860;19.226;2023-03-14T02:34:25;96902.97;;;8.28;63.93
58018;BME280;43810;50.860;19.226;2023-03-14T02:36:52;96896.81;;;8.21;63.79
58018;BME280;43810;50.860;19.226;2023-03-14T02:39:22;96897.03;;;8.12;64.02
58018;BME280;43810;50.860;19.226;2023-03-14T02:41:50;96885.38;;;7.94;64.70
58018;BME280;43810;50.860;19.226;2023-03-14T02:44:15;96880.03;;;7.90;64.79
58018;BME280;43810;50.860;19.226;2023-03-14T02:46:42;96873.03;;;7.79;65.22
58018;BME280;43810;50.860;19.226;2023-03-14T02:49:10;96875.63;;;7.75;65.40
58018;BME280;43810;50.860;19.226;2023-03-14T02:51:37;96878.53;;;7.70;65.36
58018;BME280;43810;50.860;19.226;2023-03-14T02:54:05;96883.91;;;7.54;65.65
58018;BME280;43810;50.860;19.226;2023-03-14T02:56:31;96897.19;;;7.39;65.89
58018;BME280;43810;50.860;19.226;2023-03-14T02:58:57;96888.78;;;7.33;66.17
58018;BME280;43810;50.860;19.226;2023-03-14T03:01:24;96903.88;;;7.33;66.01
58018;BME280;43810;50.860;19.226;2023-03-14T03:03:50;96902.03;;;7.17;66.32
58018;BME280;43810;50.860;19.226;2023-03-14T03:06:16;96906.81;;;7.12;66.27
58018;BME280;43810;50.860;19.226;2023-03-14T03:08:42;96915.78;;;7.07;66.74
58018;BME280;43810;50.860;19.226;2023-03-14T03:11:08;96919.13;;;7.04;66.65
58018;BME280;43810;50.860;19.226;2023-03-14T03:13:34;96956.00;;;7.36;66.17
58018;BME280;43810;50.860;19.226;2023-03-14T03:16:00;96956.75;;;7.01;65.68
58018;BME280;43810;50.860;19.226;2023-03-14T03:18:26;96953.22;;;6.62;67.52
58018;BME280;43810;50.860;19.226;2023-03-14T03:20:52;96949.03;;;6.30;68.56
58018;BME280;43810;50.860;19.226;2023-03-14T03:23:18;96950.81;;;6.26;69.54
58018;BME280;43810;50.860;19.226;2023-03-14T03:25:51;96954.56;;;6.25;68.93
58018;BME280;43810;50.860;19.226;2023-03-14T03:28:17;96929.00;;;5.97;70.18
58018;BME280;43810;50.860;19.226;2023-03-14T03:30:44;96933.38;;;5.78;70.23
58018;BME280;43810;50.860;19.226;2023-03-14T03:33:10;96952.69;;;5.82;70.69
58018;BME280;43810;50.860;19.226;2023-03-14T03:35:47;96931.34;;;5.71;71.63
58018;BME280;43810;50.860;19.226;2023-03-14T03:38:14;96936.34;;;5.76;71.71
58018;BME280;43810;50.860;19.226;2023-03-14T03:40:40;96927.88;;;5.83;71.55
58018;BME280;43810;50.860;19.226;2023-03-14T03:43:06;96932.22;;;5.91;71.58
58018;BME280;43810;50.860;19.226;2023-03-14T03:45:32;96929.59;;;5.91;71.87
58018;BME280;43810;50.860;19.226;2023-03-14T03:47:58;96922.88;;;6.09;71.19
58018;BME280;43810;50.860;19.226;2023-03-14T03:50:24;96924.84;;;6.12;71.68
58018;BME280;43810;50.860;19.226;2023-03-14T03:52:50;96923.69;;;6.25;71.19
58018;BME280;43810;50.860;19.226;2023-03-14T03:55:16;96920.09;;;6.33;70.76
58018;BME280;43810;50.860;19.226;2023-03-14T03:57:42;96913.91;;;6.41;70.22
58018;BME280;43810;50.860;19.226;2023-03-14T04:00:09;96905.38;;;6.48;70.00
58018;BME280;43810;50.860;19.226;2023-03-14T04:02:37;96904.28;;;6.49;70.25
58018;BME280;43810;50.860;19.226;2023-03-14T04:05:03;96901.66;;;6.49;70.21
58018;BME280;43810;50.860;19.226;2023-03-14T04:07:33;96899.88;;;6.53;70.51
58018;BME280;43810;50.860;19.226;2023-03-14T04:09:59;96893.63;;;6.45;70.47
58018;BME280;43810;50.860;19.226;2023-03-14T04:12:25;96895.03;;;6.39;70.45
58018;BME280;43810;50.860;19.226;2023-03-14T04:14:51;96887.63;;;6.29;70.52
58018;BME280;43810;50.860;19.226;2023-03-14T04:17:17;96884.78;;;6.22;70.90
58018;BME280;43810;50.860;19.226;2023-03-14T04:19:43;96883.44;;;6.13;71.27
58018;BME280;43810;50.860;19.226;2023-03-14T04:22:09;96861.75;;;6.03;71.63
58018;BME280;43810;50.860;19.226;2023-03-14T04:24:35;96857.31;;;5.92;71.70
58018;BME280;43810;50.860;19.226;2023-03-14T04:27:00;96862.41;;;5.85;72.30
58018;BME280;43810;50.860;19.226;2023-03-14T04:29:26;96854.59;;;5.88;73.27
58018;BME280;43810;50.860;19.226;2023-03-14T04:31:52;96859.97;;;6.07;72.86
58018;BME280;43810;50.860;19.226;2023-03-14T04:34:18;96846.78;;;6.23;72.26
58018;BME280;43810;50.860;19.226;2023-03-14T04:36:44;96846.34;;;6.21;71.86
58018;BME280;43810;50.860;19.226;2023-03-14T04:39:10;96838.38;;;6.18;72.06
58018;BME280;43810;50.860;19.226;2023-03-14T04:41:35;96838.53;;;5.93;72.44
58018;BME280;43810;50.860;19.226;2023-03-14T04:44:01;96826.28;;;5.69;73.08
58018;BME280;43810;50.860;19.226;2023-03-14T04:46:27;96830.31;;;5.51;73.64
58018;BME280;43810;50.860;19.226;2023-03-14T04:48:53;96831.81;;;5.36;73.95
58018;BME280;43810;50.860;19.226;2023-03-14T04:51:23;96823.22;;;5.24;74.70
58018;BME280;43810;50.860;19.226;2023-03-14T04:53:53;96823.91;;;5.09;75.12
58018;BME280;43810;50.860;19.226;2023-03-14T04:56:21;96811.69;;;5.00;75.46
58018;BME280;43810;50.860;19.226;2023-03-14T04:58:47;96808.59;;;4.98;75.37
58018;BME280;43810;50.860;19.226;2023-03-14T05:01:13;96802.03;;;4.92;75.53
58018;BME280;43810;50.860;19.226;2023-03-14T05:03:39;96797.81;;;4.76;76.19
58018;BME280;43810;50.860;19.226;2023-03-14T05:06:05;96797.06;;;4.75;76.52
58018;BME280;43810;50.860;19.226;2023-03-14T05:08:31;96781.09;;;4.68;76.29
58018;BME280;43810;50.860;19.226;2023-03-14T05:10:58;96785.91;;;4.66;77.08
58018;BME280;43810;50.860;19.226;2023-03-14T05:13:24;96789.81;;;4.72;77.05
58018;BME280;43810;50.860;19.226;2023-03-14T05:15:50;96779.50;;;4.79;77.30
58018;BME280;43810;50.860;19.226;2023-03-14T05:18:17;96770.63;;;4.72;77.89
58018;BME280;43810;50.860;19.226;2023-03-14T05:20:43;96776.22;;;4.70;78.52
58018;BME280;43810;50.860;19.226;2023-03-14T05:23:10;96767.19;;;4.83;78.07
58018;BME280;43810;50.860;19.226;2023-03-14T05:25:35;96765.63;;;4.94;77.09
58018;BME280;43810;50.860;19.226;2023-03-14T05:28:01;96758.78;;;5.06;77.28
58018;BME280;43810;50.860;19.226;2023-03-14T05:30:27;96764.59;;;5.11;76.60
58018;BME280;43810;50.860;19.226;2023-03-14T05:32:54;96759.00;;;5.13;76.57
58018;BME280;43810;50.860;19.226;2023-03-14T05:35:19;96765.44;;;5.15;76.80
58018;BME280;43810;50.860;19.226;2023-03-14T05:37:45;96774.84;;;5.16;76.99
58018;BME280;43810;50.860;19.226;2023-03-14T05:40:11;96771.66;;;5.23;76.38
58018;BME280;43810;50.860;19.226;2023-03-14T05:42:37;96764.03;;;5.33;76.50
58018;BME280;43810;50.860;19.226;2023-03-14T05:45:04;96773.47;;;5.34;76.56
58018;BME280;43810;50.860;19.226;2023-03-14T05:47:30;96768.28;;;5.38;76.38
58018;BME280;43810;50.860;19.226;2023-03-14T05:49:56;96768.81;;;5.44;75.99
58018;BME280;43810;50.860;19.226;2023-03-14T05:52:21;96766.53;;;5.58;76.25
58018;BME280;43810;50.860;19.226;2023-03-14T05:54:47;96760.81;;;5.87;75.15
58018;BME280;43810;50.860;19.226;2023-03-14T05:57:14;96746.19;;;5.90;75.11
58018;BME280;43810;50.860;19.226;2023-03-14T05:59:39;96743.84;;;6.20;75.49
58018;BME280;43810;50.860;19.226;2023-03-14T06:02:06;96747.97;;;6.52;75.52
58018;BME280;43810;50.860;19.226;2023-03-14T06:04:31;96745.34;;;6.91;74.15
58018;BME280;43810;50.860;19.226;2023-03-14T06:06:58;96759.69;;;7.32;72.15
58018;BME280;43810;50.860;19.226;2023-03-14T06:09:23;96747.03;;;7.64;71.34
58018;BME280;43810;50.860;19.226;2023-03-14T06:11:50;96747.13;;;7.94;70.39
58018;BME280;43810;50.860;19.226;2023-03-14T06:14:17;96738.78;;;8.18;68.96
58018;BME280;43810;50.860;19.226;2023-03-14T06:16:43;96737.94;;;8.37;69.01
58018;BME280;43810;50.860;19.226;2023-03-14T06:19:08;96741.38;;;8.41;68.59
58018;BME280;43810;50.860;19.226;2023-03-14T06:21:35;96734.78;;;8.57;67.87
58018;BME280;43810;50.860;19.226;2023-03-14T06:24:01;96737.25;;;8.73;67.45
58018;BME280;43810;50.860;19.226;2023-03-14T06:26:27;96733.13;;;8.76;66.94
58018;BME280;43810;50.860;19.226;2023-03-14T06:28:53;96727.69;;;8.95;66.21
58018;BME280;43810;50.860;19.226;2023-03-14T06:31:20;96736.81;;;9.01;66.13
58018;BME280;43810;50.860;19.226;2023-03-14T06:33:45;96736.56;;;9.13;66.01
58018;BME280;43810;50.860;19.226;2023-03-14T06:36:11;96744.16;;;9.15;65.90
58018;BME280;43810;50.860;19.226;2023-03-14T06:38:37;96727.28;;;9.30;65.44
58018;BME280;43810;50.860;19.226;2023-03-14T06:41:04;96725.31;;;9.23;66.14
58018;BME280;43810;50.860;19.226;2023-03-14T06:43:30;96732.63;;;9.33;65.41
58018;BME280;43810;50.860;19.226;2023-03-14T06:45:56;96717.94;;;9.40;65.25
58018;BME280;43810;50.860;19.226;2023-03-14T06:48:22;96716.00;;;9.37;65.68
58018;BME280;43810;50.860;19.226;2023-03-14T06:50:49;96713.34;;;9.37;65.63
58018;BME280;43810;50.860;19.226;2023-03-14T06:53:14;96717.59;;;9.45;65.75
58018;BME280;43810;50.860;19.226;2023-03-14T06:55:40;96729.81;;;9.56;65.18
58018;BME280;43810;50.860;19.226;2023-03-14T06:58:06;96728.72;;;9.61;65.45
58018;BME280;43810;50.860;19.226;2023-03-14T07:00:34;96717.44;;;9.71;65.50
58018;BME280;43810;50.860;19.226;2023-03-14T07:03:00;96706.09;;;9.74;65.52
58018;BME280;43810;50.860;19.226;2023-03-14T07:05:26;96703.44;;;9.74;64.79
58018;BME280;43810;50.860;19.226;2023-03-14T07:07:51;96707.28;;;9.80;65.58
58018;BME280;43810;50.860;19.226;2023-03-14T07:10:17;96711.59;;;10.02;65.18
58018;BME280;43810;50.860;19.226;2023-03-14T07:12:43;96712.22;;;10.47;63.66
58018;BME280;43810;50.860;19.226;2023-03-14T07:15:09;96711.16;;;10.62;62.30
58018;BME280;43810;50.860;19.226;2023-03-14T07:17:35;96712.81;;;10.99;63.33
58018;BME280;43810;50.860;19.226;2023-03-14T07:20:01;96706.47;;;11.42;61.34
58018;BME280;43810;50.860;19.226;2023-03-14T07:22:29;96708.41;;;11.81;59.58
58018;BME280;43810;50.860;19.226;2023-03-14T07:24:55;96706.09;;;12.18;59.02
58018;BME280;43810;50.860;19.226;2023-03-14T07:27:21;96704.88;;;12.37;58.60
58018;BME280;43810;50.860;19.226;2023-03-14T07:29:47;96713.19;;;12.64;56.41
58018;BME280;43810;50.860;19.226;2023-03-14T07:32:13;96718.09;;;12.83;55.84
58018;BME280;43810;50.860;19.226;2023-03-14T07:34:41;96733.25;;;12.93;54.88
58018;BME280;43810;50.860;19.226;2023-03-14T07:37:07;96727.00;;;13.25;54.51
58018;BME280;43810;50.860;19.226;2023-03-14T07:39:33;96732.56;;;13.48;54.30
58018;BME280;43810;50.860;19.226;2023-03-14T07:41:59;96727.50;;;13.68;54.14
58018;BME280;43810;50.860;19.226;2023-03-14T07:44:26;96724.72;;;13.82;53.10
58018;BME280;43810;50.860;19.226;2023-03-14T07:46:52;96718.13;;;13.94;51.73
58018;BME280;43810;50.860;19.226;2023-03-14T07:49:18;96728.31;;;13.61;52.70
58018;BME280;43810;50.860;19.226;2023-03-14T07:51:47;96721.06;;;13.62;51.97
58018;BME280;43810;50.860;19.226;2023-03-14T07:54:14;96727.16;;;13.62;53.11
58018;BME280;43810;50.860;19.226;2023-03-14T07:56:40;96731.25;;;13.74;51.67
58018;BME280;43810;50.860;19.226;2023-03-14T07:59:06;96716.47;;;13.66;52.93
58018;BME280;43810;50.860;19.226;2023-03-14T08:01:32;96719.84;;;13.70;51.50
58018;BME280;43810;50.860;19.226;2023-03-14T08:03:58;96721.34;;;13.75;53.21
58018;BME280;43810;50.860;19.226;2023-03-14T08:06:24;96725.06;;;13.88;52.06
58018;BME280;43810;50.860;19.226;2023-03-14T08:08:50;96726.56;;;13.89;51.22
58018;BME280;43810;50.860;19.226;2023-03-14T08:11:16;96731.81;;;13.99;51.37
58018;BME280;43810;50.860;19.226;2023-03-14T08:13:42;96728.81;;;13.94;51.25
58018;BME280;43810;50.860;19.226;2023-03-14T08:16:08;96727.25;;;14.00;51.84
58018;BME280;43810;50.860;19.226;2023-03-14T08:18:34;96725.13;;;14.25;52.31
58018;BME280;43810;50.860;19.226;2023-03-14T08:21:00;96721.25;;;14.30;50.55
58018;BME280;43810;50.860;19.226;2023-03-14T08:23:26;96717.00;;;14.36;49.14
58018;BME280;43810;50.860;19.226;2023-03-14T08:25:52;96718.19;;;14.31;49.73
58018;BME280;43810;50.860;19.226;2023-03-14T08:28:18;96704.34;;;14.40;49.91
58018;BME280;43810;50.860;19.226;2023-03-14T08:30:44;96706.34;;;14.70;49.34
58018;BME280;43810;50.860;19.226;2023-03-14T08:33:10;96714.63;;;15.09;49.76
58018;BME280;43810;50.860;19.226;2023-03-14T08:35:37;96701.00;;;15.54;47.02
58018;BME280;43810;50.860;19.226;2023-03-14T08:38:04;96710.66;;;15.48;46.43
58018;BME280;43810;50.860;19.226;2023-03-14T08:40:30;96716.25;;;15.30;48.74
58018;BME280;43810;50.860;19.226;2023-03-14T08:42:56;96733.72;;;15.42;46.28
58018;BME280;43810;50.860;19.226;2023-03-14T08:45:21;96710.13;;;15.03;47.52
58018;BME280;43810;50.860;19.226;2023-03-14T08:47:49;96718.16;;;14.72;48.60
58018;BME280;43810;50.860;19.226;2023-03-14T08:50:15;96727.59;;;14.47;49.20
58018;BME280;43810;50.860;19.226;2023-03-14T08:52:41;96730.38;;;14.36;49.52
58018;BME280;43810;50.860;19.226;2023-03-14T08:55:08;96724.66;;;14.34;49.84
58018;BME280;43810;50.860;19.226;2023-03-14T08:57:35;96728.72;;;14.04;50.38
58018;BME280;43810;50.860;19.226;2023-03-14T09:00:02;96732.78;;;13.75;50.76
58018;BME280;43810;50.860;19.226;2023-03-14T09:02:31;96736.75;;;13.49;51.21
58018;BME280;43810;50.860;19.226;2023-03-14T09:04:56;96729.97;;;13.38;51.31
58018;BME280;43810;50.860;19.226;2023-03-14T09:07:22;96732.38;;;13.21;52.51
58018;BME280;43810;50.860;19.226;2023-03-14T09:09:48;96720.31;;;12.95;52.74
58018;BME280;43810;50.860;19.226;2023-03-14T09:12:14;96740.94;;;12.74;53.48
58018;BME280;43810;50.860;19.226;2023-03-14T09:14:40;96726.94;;;12.52;54.33
58018;BME280;43810;50.860;19.226;2023-03-14T09:17:06;96722.34;;;12.52;55.38
58018;BME280;43810;50.860;19.226;2023-03-14T09:19:32;96727.25;;;12.68;53.78
58018;BME280;43810;50.860;19.226;2023-03-14T09:21:58;96716.94;;;12.74;53.75
58018;BME280;43810;50.860;19.226;2023-03-14T09:24:24;96726.84;;;12.80;54.05
58018;BME280;43810;50.860;19.226;2023-03-14T09:26:49;96731.75;;;12.89;54.24
58018;BME280;43810;50.860;19.226;2023-03-14T09:29:15;96742.03;;;12.94;53.91
58018;BME280;43810;50.860;19.226;2023-03-14T09:31:41;96739.31;;;13.01;54.48
58018;BME280;43810;50.860;19.226;2023-03-14T09:34:07;96750.78;;;12.94;54.75
58018;BME280;43810;50.860;19.226;2023-03-14T09:36:33;96745.50;;;12.84;54.80
58018;BME280;43810;50.860;19.226;2023-03-14T09:38:58;96755.34;;;12.98;54.27
58018;BME280;43810;50.860;19.226;2023-03-14T09:41:31;96754.97;;;12.95;54.23
58018;BME280;43810;50.860;19.226;2023-03-14T09:44:39;96748.53;;;12.79;54.68
58018;BME280;43810;50.860;19.226;2023-03-14T09:47:12;96763.78;;;12.71;54.91
58018;BME280;43810;50.860;19.226;2023-03-14T09:49:40;96769.09;;;12.68;55.05
58018;BME280;43810;50.860;19.226;2023-03-14T09:52:13;96755.03;;;12.71;54.63
58018;BME280;43810;50.860;19.226;2023-03-14T09:54:52;96753.88;;;12.82;55.32
58018;BME280;43810;50.860;19.226;2023-03-14T09:57:21;96752.72;;;12.87;54.81
58018;BME280;43810;50.860;19.226;2023-03-14T09:59:49;96759.56;;;12.88;55.25
58018;BME280;43810;50.860;19.226;2023-03-14T10:02:25;96760.00;;;12.76;55.91
58018;BME280;43810;50.860;19.226;2023-03-14T10:04:52;96764.91;;;12.84;54.89
58018;BME280;43810;50.860;19.226;2023-03-14T10:07:25;96754.31;;;12.52;55.77
58018;BME280;43810;50.860;19.226;2023-03-14T10:09:52;96746.34;;;12.45;56.49
58018;BME280;43810;50.860;19.226;2023-03-14T10:12:19;96726.16;;;12.44;57.30
58018;BME280;43810;50.860;19.226;2023-03-14T10:14:50;96731.13;;;12.53;56.43
58018;BME280;43810;50.860;19.226;2023-03-14T10:17:18;96722.69;;;12.65;55.71
58018;BME280;43810;50.860;19.226;2023-03-14T10:19:58;96700.22;;;12.73;56.95
58018;BME280;43810;50.860;19.226;2023-03-14T10:22:29;96702.84;;;12.84;55.79
58018;BME280;43810;50.860;19.226;2023-03-14T10:24:57;96717.59;;;13.10;55.42
58018;BME280;43810;50.860;19.226;2023-03-14T10:27:34;96708.78;;;13.13;55.49
58018;BME280;43810;50.860;19.226;2023-03-14T10:30:03;96716.38;;;13.18;54.70
58018;BME280;43810;50.860;19.226;2023-03-14T10:32:35;96731.72;;;13.00;55.71
58018;BME280;43810;50.860;19.226;2023-03-14T10:35:19;96727.88;;;13.04;55.60
58018;BME280;43810;50.860;19.226;2023-03-14T10:38:02;96711.13;;;13.07;55.37
58018;BME280;43810;50.860;19.226;2023-03-14T10:40:31;96716.38;;;13.18;55.65
58018;BME280;43810;50.860;19.226;2023-03-14T10:42:59;96717.84;;;13.29;55.55
58018;BME280;43810;50.860;19.226;2023-03-14T10:47:52;96723.09;;;13.44;54.05
58018;BME280;43810;50.860;19.226;2023-03-14T10:50:24;96736.84;;;13.39;54.81
58018;BME280;43810;50.860;19.226;2023-03-14T10:52:52;96748.00;;;13.23;54.63
58018;BME280;43810;50.860;19.226;2023-03-14T10:55:18;96759.88;;;13.08;55.62
58018;BME280;43810;50.860;19.226;2023-03-14T10:57:44;96759.47;;;13.09;55.98
58018;BME280;43810;50.860;19.226;2023-03-14T11:00:16;96767.53;;;12.95;56.25
58018;BME280;43810;50.860;19.226;2023-03-14T11:02:57;96775.19;;;12.82;56.93
58018;BME280;43810;50.860;19.226;2023-03-14T11:05:34;96789.63;;;12.88;56.42
58018;BME280;43810;50.860;19.226;2023-03-14T11:11:11;96779.00;;;12.67;57.42
58018;BME280;43810;50.860;19.226;2023-03-14T11:16:46;96790.47;;;12.32;62.61
58018;BME280;43810;50.860;19.226;2023-03-14T11:22:27;96792.78;;;11.87;64.65
58018;BME280;43810;50.860;19.226;2023-03-14T11:27:44;96799.97;;;11.76;65.22
58018;BME280;43810;50.860;19.226;2023-03-14T11:30:19;96810.25;;;11.78;65.32
58018;BME280;43810;50.860;19.226;2023-03-14T11:40:52;96809.88;;;11.76;67.94
58018;BME280;43810;50.860;19.226;2023-03-14T11:43:39;96804.91;;;11.74;68.24
58018;BME280;43810;50.860;19.226;2023-03-14T11:46:15;96785.94;;;11.72;68.73
58018;BME280;43810;50.860;19.226;2023-03-14T11:48:57;96791.25;;;11.83;68.46
58018;BME280;43810;50.860;19.226;2023-03-14T11:51:29;96789.72;;;11.96;68.80
58018;BME280;43810;50.860;19.226;2023-03-14T11:57:01;96789.00;;;12.06;68.45
58018;BME280;43810;50.860;19.226;2023-03-14T12:02:09;96780.63;;;12.15;69.13
58018;BME280;43810;50.860;19.226;2023-03-14T12:04:53;96782.13;;;12.12;69.43
58018;BME280;43810;50.860;19.226;2023-03-14T12:10:29;96785.94;;;12.15;66.40
58018;BME280;43810;50.860;19.226;2023-03-14T12:13:01;96798.09;;;11.91;67.16
58018;BME280;43810;50.860;19.226;2023-03-14T12:15:27;96786.28;;;11.74;67.96
58018;BME280;43810;50.860;19.226;2023-03-14T12:17:54;96792.75;;;11.66;69.18
58018;BME280;43810;50.860;19.226;2023-03-14T12:20:23;96783.63;;;11.67;67.42
58018;BME280;43810;50.860;19.226;2023-03-14T12:22:51;96776.03;;;11.66;67.76
58018;BME280;43810;50.860;19.226;2023-03-14T12:25:21;96762.72;;;11.62;68.22
58018;BME280;43810;50.860;19.226;2023-03-14T12:30:36;96757.03;;;11.67;68.01
58018;BME280;43810;50.860;19.226;2023-03-14T12:35:48;96747.16;;;11.89;68.64
58018;BME280;43810;50.860;19.226;2023-03-14T12:43:34;96750.59;;;12.04;67.88
58018;BME280;43810;50.860;19.226;2023-03-14T12:49:04;96749.44;;;12.01;67.60
58018;BME280;43810;50.860;19.226;2023-03-14T12:51:39;96744.88;;;12.02;67.92
58018;BME280;43810;50.860;19.226;2023-03-14T12:54:21;96751.34;;;11.97;67.88
58018;BME280;43810;50.860;19.226;2023-03-14T12:57:03;96753.25;;;11.89;67.74
58018;BME280;43810;50.860;19.226;2023-03-14T13:04:44;96753.25;;;12.00;67.61
58018;BME280;43810;50.860;19.226;2023-03-14T13:07:32;96746.41;;;11.99;67.46
58018;BME280;43810;50.860;19.226;2023-03-14T13:15:22;96743.34;;;12.29;66.77
58018;BME280;43810;50.860;19.226;2023-03-14T13:17:51;96753.97;;;12.25;67.14
58018;BME280;43810;50.860;19.226;2023-03-14T13:20:36;96754.72;;;12.37;66.71
58018;BME280;43810;50.860;19.226;2023-03-14T13:23:03;96741.75;;;12.46;66.29
58018;BME280;43810;50.860;19.226;2023-03-14T13:25:32;96744.06;;;12.51;66.54
58018;BME280;43810;50.860;19.226;2023-03-14T13:27:58;96740.97;;;12.59;66.18
58018;BME280;43810;50.860;19.226;2023-03-14T13:30:35;96736.06;;;12.51;66.33
58018;BME280;43810;50.860;19.226;2023-03-14T13:33:04;96745.13;;;12.71;65.58
58018;BME280;43810;50.860;19.226;2023-03-14T13:35:40;96740.94;;;12.67;65.91
58018;BME280;43810;50.860;19.226;2023-03-14T13:38:15;96745.13;;;12.71;66.33
58018;BME280;43810;50.860;19.226;2023-03-14T13:40:43;96750.84;;;12.70;65.50
58018;BME280;43810;50.860;19.226;2023-03-14T13:46:04;96753.19;;;12.50;66.11
58018;BME280;43810;50.860;19.226;2023-03-14T13:48:34;96757.75;;;12.32;66.86
58018;BME280;43810;50.860;19.226;2023-03-14T13:51:04;96764.63;;;12.22;66.92
58018;BME280;43810;50.860;19.226;2023-03-14T13:53:32;96761.22;;;12.11;67.61
58018;BME280;43810;50.860;19.226;2023-03-14T13:56:02;96763.88;;;12.14;67.86
58018;BME280;43810;50.860;19.226;2023-03-14T13:58:30;96770.72;;;12.08;68.63
58018;BME280;43810;50.860;19.226;2023-03-14T14:01:01;96765.41;;;11.80;69.29
58018;BME280;43810;50.860;19.226;2023-03-14T14:03:28;96769.19;;;11.86;69.55
58018;BME280;43810;50.860;19.226;2023-03-14T14:05:56;96773.41;;;11.80;69.95